Time;durP1;ratioP1;P1;durP2;ratioP2;P2;SDS_P1;SDS_P2;PMS_P1;PMS_P2;Temp;Humidity;BMP_temperature;BMP_pressure;BME280_temperature;BME280_humidity;BME280_pressure;Samples;Min_cycle;Max_cycle;Signal;HPM_P1;HPM_P2
2023/11/25 00:01:41;;;;;;;6.15;2.85;;;1.30;1.00;;;;;;5061114;28;20240;-78
2023/11/25 00:04:08;;;;;;;5.05;2.65;;;1.30;1.00;;;;;;5049882;28;20734;-77
2023/11/25 00:06:35;;;;;;;3.33;2.00;;;1.30;1.00;;;;;;5047520;28;20734;-75
2023/11/25 00:09:03;;;;;;;3.25;2.50;;;1.30;1.00;;;;;;5052595;28;20344;-76
2023/11/25 00:11:29;;;;;;;3.88;3.15;;;1.30;1.00;;;;;;5052542;28;20283;-75
2023/11/25 00:13:58;;;;;;;6.05;3.13;;;1.30;1.00;;;;;;5063938;28;20244;-77
2023/11/25 00:16:25;;;;;;;5.30;3.03;;;1.30;1.00;;;;;;5051203;28;20234;-77
2023/11/25 00:18:52;;;;;;;3.97;3.05;;;1.30;1.00;;;;;;5061370;28;20764;-77
2023/11/25 00:21:19;;;;;;;6.97;3.38;;;1.30;1.00;;;;;;5058863;28;20362;-75
2023/11/25 00:23:47;;;;;;;4.65;2.50;;;1.30;1.00;;;;;;5047249;28;20237;-77
2023/11/25 00:26:15;;;;;;;6.50;2.95;;;1.30;1.00;;;;;;5060691;28;20241;-79
2023/11/25 00:28:42;;;;;;;3.25;2.13;;;1.30;1.00;;;;;;5057235;28;20237;-79
2023/11/25 00:31:14;;;;;;;8.13;3.00;;;1.30;1.00;;;;;;5061696;28;20236;-77
2023/11/25 00:33:41;;;;;;;7.03;3.28;;;1.30;1.00;;;;;;5067652;28;20630;-79
2023/11/25 00:36:11;;;;;;;6.68;2.50;;;1.30;1.00;;;;;;5069299;28;20316;-70
2023/11/25 00:38:39;;;;;;;6.38;2.45;;;1.30;1.00;;;;;;5064984;28;20237;-71
2023/11/25 00:41:06;;;;;;;5.07;2.10;;;1.30;1.00;;;;;;5069261;28;20287;-70
2023/11/25 00:43:33;;;;;;;3.22;2.20;;;1.30;1.00;;;;;;5066347;28;21279;-72
2023/11/25 00:46:02;;;;;;;4.65;2.70;;;1.30;1.00;;;;;;5064825;28;20366;-69
2023/11/25 00:48:35;;;;;;;5.55;2.45;;;1.30;1.00;;;;;;5049112;28;20241;-69
2023/11/25 00:51:02;;;;;;;4.15;1.95;;;1.30;1.00;;;;;;5068972;28;20357;-70
2023/11/25 00:53:29;;;;;;;4.40;2.03;;;1.30;1.00;;;;;;5068981;28;20232;-70
2023/11/25 00:55:56;;;;;;;3.22;2.15;;;1.30;1.00;;;;;;5069560;28;20798;-71
2023/11/25 00:58:24;;;;;;;4.20;2.15;;;1.30;1.00;;;;;;5068502;28;21013;-71
2023/11/25 01:00:52;;;;;;;3.25;2.40;;;1.30;1.00;;;;;;5066189;28;20276;-73
2023/11/25 01:03:19;;;;;;;3.88;2.47;;;1.30;1.00;;;;;;5057377;28;20331;-69
2023/11/25 01:05:48;;;;;;;4.40;2.05;;;1.30;1.00;;;;;;5068718;28;20812;-69
2023/11/25 01:08:15;;;;;;;4.45;1.52;;;1.30;1.00;;;;;;5069543;28;20245;-73
2023/11/25 01:10:43;;;;;;;4.13;2.03;;;1.20;1.00;;;;;;5068896;28;20241;-69
2023/11/25 01:13:09;;;;;;;5.82;1.92;;;1.30;1.00;;;;;;5066437;28;20354;-69
2023/11/25 01:15:37;;;;;;;2.08;1.25;;;1.20;1.00;;;;;;5068137;28;20331;-72
2023/11/25 01:18:04;;;;;;;5.53;1.52;;;1.30;1.00;;;;;;5053044;28;20256;-70
2023/11/25 01:20:31;;;;;;;3.65;1.98;;;1.20;1.00;;;;;;5053076;28;20323;-70
2023/11/25 01:23:00;;;;;;;2.65;2.22;;;1.20;1.00;;;;;;5051757;28;20232;-70
2023/11/25 01:25:27;;;;;;;1.65;1.42;;;1.30;1.00;;;;;;5056926;28;20260;-73
2023/11/25 01:27:55;;;;;;;4.47;2.33;;;1.20;1.00;;;;;;5070255;28;20292;-70
2023/11/25 01:30:22;;;;;;;3.20;1.70;;;1.20;1.00;;;;;;5068884;28;20236;-70
2023/11/25 01:32:49;;;;;;;3.95;1.60;;;1.20;1.00;;;;;;5067866;28;20371;-69
2023/11/25 01:35:16;;;;;;;3.78;1.67;;;1.30;1.00;;;;;;5063040;28;20232;-69
2023/11/25 01:37:43;;;;;;;5.63;2.22;;;1.30;1.00;;;;;;5069070;28;20279;-70
2023/11/25 01:40:12;;;;;;;7.72;1.77;;;1.40;1.00;;;;;;5068232;28;20268;-70
2023/11/25 01:42:39;;;;;;;2.75;1.55;;;1.40;1.00;;;;;;5069147;28;20237;-69
2023/11/25 01:45:08;;;;;;;6.30;2.95;;;1.40;1.00;;;;;;5051192;28;20651;-70
2023/11/25 01:47:36;;;;;;;2.55;1.63;;;1.50;1.00;;;;;;5066722;28;20255;-71
2023/11/25 01:50:06;;;;;;;4.75;1.88;;;1.50;1.00;;;;;;5069673;28;20268;-72
2023/11/25 01:52:34;;;;;;;4.30;2.00;;;1.50;1.00;;;;;;5066614;28;20335;-71
2023/11/25 01:55:03;;;;;;;2.75;1.73;;;1.60;1.00;;;;;;5060988;28;20268;-70
2023/11/25 01:57:34;;;;;;;3.67;1.20;;;1.60;1.00;;;;;;5053416;28;20267;-70
2023/11/25 02:00:07;;;;;;;2.67;1.48;;;1.60;1.00;;;;;;5068853;28;20248;-70
2023/11/25 02:02:35;;;;;;;2.40;2.20;;;1.60;1.00;;;;;;5060061;28;20244;-70
2023/11/25 02:05:03;;;;;;;1.65;1.35;;;1.60;1.00;;;;;;5053084;28;20316;-72
2023/11/25 02:07:30;;;;;;;3.08;1.70;;;1.70;1.00;;;;;;5067001;28;20657;-71
2023/11/25 02:09:58;;;;;;;2.65;1.20;;;1.70;1.00;;;;;;5065052;28;20237;-70
2023/11/25 02:12:26;;;;;;;3.55;1.40;;;1.80;1.00;;;;;;5057815;28;20476;-75
2023/11/25 02:14:54;;;;;;;3.08;2.00;;;1.80;1.00;;;;;;5054119;28;20237;-74
2023/11/25 02:17:21;;;;;;;3.40;1.60;;;1.80;1.00;;;;;;5046601;28;20241;-69
2023/11/25 02:19:48;;;;;;;2.50;1.60;;;1.80;1.00;;;;;;5065595;28;20290;-71
2023/11/25 02:22:15;;;;;;;2.35;1.35;;;1.80;1.00;;;;;;5053229;28;20287;-70
2023/11/25 02:24:44;;;;;;;2.20;1.20;;;1.80;1.00;;;;;;5066416;28;21003;-68
2023/11/25 02:27:13;;;;;;;2.22;1.70;;;1.80;1.00;;;;;;5054108;28;20241;-72
2023/11/25 02:29:40;;;;;;;3.53;2.17;;;1.80;1.00;;;;;;5045025;28;20245;-69
2023/11/25 02:32:09;;;;;;;4.65;1.73;;;1.80;1.00;;;;;;5063981;28;20233;-71
2023/11/25 02:34:36;;;;;;;2.45;1.63;;;1.90;1.00;;;;;;5060407;28;20239;-70
2023/11/25 02:37:06;;;;;;;3.55;1.30;;;1.90;1.00;;;;;;5066183;28;20248;-70
2023/11/25 02:39:34;;;;;;;3.05;1.55;;;1.90;1.00;;;;;;5065623;28;20242;-71
2023/11/25 02:42:05;;;;;;;3.25;1.30;;;1.90;1.00;;;;;;5065488;28;20391;-73
2023/11/25 02:44:32;;;;;;;3.22;1.25;;;1.90;1.00;;;;;;5065244;28;20264;-70
2023/11/25 02:47:04;;;;;;;2.75;1.20;;;2.00;1.00;;;;;;5058098;28;20316;-70
2023/11/25 02:49:31;;;;;;;3.25;1.02;;;1.90;1.00;;;;;;5064321;28;20228;-70
2023/11/25 02:51:58;;;;;;;3.20;1.33;;;1.90;1.00;;;;;;5064167;28;20232;-69
2023/11/25 02:54:25;;;;;;;1.52;1.00;;;1.90;1.00;;;;;;5065220;28;20317;-70
2023/11/25 02:56:52;;;;;;;3.05;1.50;;;1.90;1.00;;;;;;5064577;28;20245;-71
2023/11/25 02:59:22;;;;;;;4.50;2.00;;;1.90;1.00;;;;;;5061723;28;20282;-68
2023/11/25 03:01:51;;;;;;;3.47;1.00;;;1.90;1.00;;;;;;5066848;28;20233;-69
2023/11/25 03:04:19;;;;;;;1.50;1.08;;;1.90;1.00;;;;;;5066882;28;20337;-70
2023/11/25 03:06:46;;;;;;;2.85;1.08;;;1.90;1.00;;;;;;5064839;28;21814;-69
2023/11/25 03:09:13;;;;;;;3.97;1.27;;;1.90;1.00;;;;;;5064376;28;20709;-72
2023/11/25 03:11:40;;;;;;;1.67;1.20;;;1.90;1.00;;;;;;5059471;28;21087;-76
2023/11/25 03:14:07;;;;;;;2.85;1.23;;;1.80;1.00;;;;;;5066840;28;20329;-69
2023/11/25 03:16:36;;;;;;;2.95;1.45;;;1.80;1.00;;;;;;5050595;28;21239;-70
2023/11/25 03:19:05;;;;;;;3.50;1.40;;;1.80;1.00;;;;;;5057379;28;20267;-71
2023/11/25 03:21:33;;;;;;;1.75;0.90;;;1.70;1.00;;;;;;5066249;28;20708;-75
2023/11/25 03:24:01;;;;;;;3.35;1.60;;;1.70;1.00;;;;;;5052926;28;20423;-71
2023/11/25 03:26:28;;;;;;;2.10;1.08;;;1.70;1.00;;;;;;5060630;28;20240;-74
2023/11/25 03:28:55;;;;;;;1.80;1.20;;;1.70;1.00;;;;;;5064234;28;20323;-69
2023/11/25 03:31:23;;;;;;;3.17;1.40;;;1.80;1.00;;;;;;5052768;28;20245;-71
2023/11/25 03:33:52;;;;;;;4.50;1.25;;;1.80;1.00;;;;;;5056214;28;20248;-71
2023/11/25 03:36:19;;;;;;;3.42;1.60;;;1.80;1.00;;;;;;5052964;28;20287;-70
2023/11/25 03:38:46;;;;;;;10.70;2.05;;;1.90;1.00;;;;;;5045848;28;20291;-70
2023/11/25 03:41:13;;;;;;;2.08;1.73;;;1.90;1.00;;;;;;5046043;28;21085;-70
2023/11/25 03:43:39;;;;;;;3.95;1.30;;;1.90;1.00;;;;;;5042682;28;20237;-70
2023/11/25 03:46:06;;;;;;;3.78;1.70;;;2.00;1.00;;;;;;5049810;28;20353;-70
2023/11/25 03:48:34;;;;;;;1.90;1.48;;;2.00;1.00;;;;;;5062619;28;20228;-71
2023/11/25 03:51:04;;;;;;;5.75;1.70;;;2.10;1.00;;;;;;5062051;28;20247;-70
2023/11/25 03:53:31;;;;;;;5.05;1.80;;;2.20;1.00;;;;;;5065075;28;20236;-69
2023/11/25 03:55:59;;;;;;;2.85;1.60;;;2.20;1.00;;;;;;5064229;28;20323;-69
2023/11/25 03:58:26;;;;;;;3.20;1.65;;;2.20;1.00;;;;;;5058397;28;20241;-70
2023/11/25 04:00:53;;;;;;;3.38;1.60;;;2.20;1.00;;;;;;5067541;28;20246;-70
2023/11/25 04:03:20;;;;;;;3.40;1.40;;;2.20;1.00;;;;;;5068698;28;20246;-70
2023/11/25 04:05:47;;;;;;;3.13;1.50;;;2.20;1.00;;;;;;5051854;28;20237;-68
2023/11/25 04:08:15;;;;;;;1.90;1.52;;;2.20;1.00;;;;;;5070220;28;21044;-72
2023/11/25 04:10:43;;;;;;;3.58;1.38;;;2.20;1.00;;;;;;5059701;28;20263;-69
2023/11/25 04:13:09;;;;;;;3.05;1.50;;;2.20;1.00;;;;;;5056618;28;20240;-71
2023/11/25 04:15:36;;;;;;;5.53;1.65;;;2.20;1.00;;;;;;5054856;28;20789;-70
2023/11/25 04:18:04;;;;;;;3.40;1.40;;;2.20;1.00;;;;;;5053795;28;20237;-72
2023/11/25 04:20:33;;;;;;;5.70;1.90;;;2.20;1.00;;;;;;5057770;28;20232;-69
2023/11/25 04:23:05;;;;;;;5.18;2.38;;;2.20;1.00;;;;;;5059687;28;20301;-69
2023/11/25 04:25:34;;;;;;;2.67;1.55;;;2.20;1.00;;;;;;5059111;28;20298;-70
2023/11/25 04:28:01;;;;;;;3.60;1.83;;;2.30;1.00;;;;;;5061706;28;20237;-72
2023/11/25 04:30:28;;;;;;;5.30;2.60;;;2.30;1.00;;;;;;5057997;28;20237;-71
2023/11/25 04:32:55;;;;;;;6.50;2.85;;;2.30;1.00;;;;;;5069972;28;20241;-67
2023/11/25 04:35:22;;;;;;;3.92;2.10;;;2.30;1.00;;;;;;5068528;28;20350;-68
2023/11/25 04:37:49;;;;;;;3.20;1.98;;;2.30;1.00;;;;;;5067816;28;20237;-72
2023/11/25 04:40:18;;;;;;;7.35;2.45;;;2.30;1.00;;;;;;5070218;28;20276;-69
2023/11/25 04:42:46;;;;;;;6.13;1.95;;;2.40;1.00;;;;;;5068056;28;20322;-69
2023/11/25 04:45:16;;;;;;;7.63;2.97;;;2.40;1.00;;;;;;5068261;28;20243;-70
2023/11/25 04:47:45;;;;;;;6.15;2.15;;;2.30;1.00;;;;;;5066501;28;20563;-70
2023/11/25 04:50:12;;;;;;;6.50;2.40;;;2.30;1.00;;;;;;5066435;28;20697;-70
2023/11/25 04:52:39;;;;;;;5.07;2.17;;;2.30;1.00;;;;;;5066474;28;20224;-68
2023/11/25 04:55:08;;;;;;;4.68;2.40;;;2.30;1.00;;;;;;5053814;28;20239;-68
2023/11/25 04:57:36;;;;;;;3.83;2.50;;;2.30;1.00;;;;;;5049603;28;20824;-70
2023/11/25 05:00:09;;;;;;;5.55;2.30;;;2.20;1.00;;;;;;5060232;28;20318;-75
2023/11/25 05:02:36;;;;;;;8.05;5.90;;;2.30;1.00;;;;;;5054859;28;20940;-70
2023/11/25 05:05:04;;;;;;;5.90;3.13;;;2.30;1.00;;;;;;5065914;28;20240;-71
2023/11/25 05:07:31;;;;;;;6.63;3.15;;;2.30;1.00;;;;;;5067854;28;20238;-69
2023/11/25 05:09:58;;;;;;;5.65;2.97;;;2.30;1.00;;;;;;5051613;28;21192;-71
2023/11/25 05:12:25;;;;;;;3.45;2.17;;;2.20;1.00;;;;;;5069699;28;20376;-72
2023/11/25 05:14:52;;;;;;;6.60;2.50;;;2.20;1.00;;;;;;5056656;28;20315;-69
2023/11/25 05:17:21;;;;;;;6.10;2.80;;;2.10;1.00;;;;;;5066302;28;20686;-75
2023/11/25 05:19:48;;;;;;;5.25;3.17;;;2.10;1.00;;;;;;5068371;28;20244;-75
2023/11/25 05:22:16;;;;;;;6.30;2.88;;;2.10;1.00;;;;;;5060693;28;20266;-76
2023/11/25 05:24:43;;;;;;;4.95;3.00;;;2.10;1.00;;;;;;5055098;28;20241;-75
2023/11/25 05:27:10;;;;;;;7.00;3.13;;;2.10;1.00;;;;;;5049412;28;20662;-75
2023/11/25 05:29:37;;;;;;;3.42;2.53;;;2.10;1.00;;;;;;5057737;28;20367;-74
2023/11/25 05:32:06;;;;;;;8.73;3.35;;;2.10;1.00;;;;;;5059715;28;20287;-76
2023/11/25 05:34:35;;;;;;;8.30;4.72;;;2.10;1.00;;;;;;5059766;28;20241;-76
2023/11/25 05:37:03;;;;;;;7.55;3.20;;;2.10;1.00;;;;;;5046490;28;20265;-76
2023/11/25 05:39:30;;;;;;;6.78;3.25;;;2.10;1.00;;;;;;5053902;28;20234;-76
2023/11/25 05:41:57;;;;;;;9.88;3.50;;;2.10;1.00;;;;;;5067470;28;20233;-76
2023/11/25 05:44:25;;;;;;;7.05;3.35;;;2.10;1.00;;;;;;5059136;28;20268;-75
2023/11/25 05:46:55;;;;;;;5.85;2.88;;;2.10;1.00;;;;;;5057172;28;20236;-76
2023/11/25 05:49:22;;;;;;;4.38;2.60;;;2.00;1.00;;;;;;5066917;28;20233;-75
2023/11/25 05:51:51;;;;;;;10.05;2.55;;;2.00;1.00;;;;;;5057460;28;20238;-77
2023/11/25 05:54:19;;;;;;;7.78;3.67;;;2.00;1.00;;;;;;5057349;28;20315;-75
2023/11/25 05:56:48;;;;;;;4.43;2.25;;;2.00;1.00;;;;;;5066544;28;20240;-75
2023/11/25 05:59:16;;;;;;;4.18;2.10;;;1.90;1.00;;;;;;5060121;28;20245;-76
2023/11/25 06:01:43;;;;;;;8.05;2.80;;;1.90;1.00;;;;;;5064935;28;20255;-74
2023/11/25 06:04:10;;;;;;;6.80;2.67;;;1.80;1.00;;;;;;5066399;28;20331;-75
2023/11/25 06:06:38;;;;;;;5.10;2.10;;;1.80;1.00;;;;;;5064617;28;20331;-75
2023/11/25 06:09:11;;;;;;;4.75;2.08;;;1.80;1.00;;;;;;5061036;28;20237;-75
2023/11/25 06:11:38;;;;;;;11.30;3.13;;;1.70;1.00;;;;;;5049936;28;20257;-77
2023/11/25 06:14:06;;;;;;;5.93;2.60;;;1.70;1.00;;;;;;5066049;28;20320;-76
2023/11/25 06:16:33;;;;;;;4.40;2.45;;;1.60;1.00;;;;;;5066591;28;20337;-76
2023/11/25 06:19:00;;;;;;;5.50;2.40;;;1.60;1.00;;;;;;5068383;28;20232;-76
2023/11/25 06:21:27;;;;;;;5.60;2.92;;;1.60;1.00;;;;;;5064633;28;20261;-76
2023/11/25 06:23:55;;;;;;;5.43;2.45;;;1.50;1.00;;;;;;5057536;28;20786;-76
2023/11/25 06:26:23;;;;;;;7.03;2.13;;;1.50;1.00;;;;;;5050138;28;20233;-73
2023/11/25 06:28:50;;;;;;;7.20;2.55;;;1.50;1.00;;;;;;5065617;28;20267;-75
2023/11/25 06:31:17;;;;;;;5.00;1.85;;;1.50;1.00;;;;;;5055100;28;21036;-77
2023/11/25 06:33:45;;;;;;;4.30;1.60;;;1.50;1.00;;;;;;5059461;28;21030;-76
2023/11/25 06:36:12;;;;;;;7.30;2.70;;;1.50;1.00;;;;;;5061048;28;20265;-76
2023/11/25 06:38:39;;;;;;;5.32;2.08;;;1.50;1.00;;;;;;5056094;28;20237;-75
2023/11/25 06:41:08;;;;;;;7.35;3.10;;;1.50;1.00;;;;;;5046447;28;20316;-77
2023/11/25 06:43:38;;;;;;;5.07;2.15;;;1.50;1.00;;;;;;5045838;28;20877;-75
2023/11/25 06:46:05;;;;;;;4.60;2.20;;;1.50;1.00;;;;;;5052907;28;20240;-77
2023/11/25 06:48:33;;;;;;;4.20;2.28;;;1.50;1.00;;;;;;5065230;28;20255;-76
2023/11/25 06:51:00;;;;;;;4.30;2.60;;;1.50;1.00;;;;;;5065227;28;20959;-76
2023/11/25 06:53:28;;;;;;;7.00;3.17;;;1.50;1.00;;;;;;5052886;28;20236;-76
2023/11/25 06:55:58;;;;;;;5.68;2.15;;;1.50;1.00;;;;;;5048038;28;20267;-76
2023/11/25 06:58:25;;;;;;;3.45;1.88;;;1.50;1.00;;;;;;5052744;28;20267;-75
2023/11/25 07:00:57;;;;;;;5.10;2.38;;;1.50;1.00;;;;;;5049248;28;20233;-74
2023/11/25 07:03:24;;;;;;;7.38;2.85;;;1.50;1.00;;;;;;5046971;28;22501;-76
2023/11/25 07:05:52;;;;;;;5.35;1.85;;;1.50;1.00;;;;;;5067373;28;20268;-76
2023/11/25 07:08:19;;;;;;;4.70;1.92;;;1.60;1.00;;;;;;5063715;28;21165;-75
2023/11/25 07:10:53;;;;;;;7.45;3.20;;;1.60;1.00;;;;;;5050276;28;20310;-76
2023/11/25 07:13:20;;;;;;;3.90;2.25;;;1.60;1.00;;;;;;5061339;28;20754;-76
2023/11/25 07:15:47;;;;;;;5.65;2.72;;;1.70;1.00;;;;;;5059310;28;20291;-75
2023/11/25 07:18:18;;;;;;;5.38;2.25;;;1.60;1.00;;;;;;5061801;28;20713;-74
2023/11/25 07:20:46;;;;;;;3.97;2.40;;;1.60;1.00;;;;;;5064959;28;20240;-76
2023/11/25 07:23:14;;;;;;;7.50;2.13;;;1.60;1.00;;;;;;5066958;28;20744;-74
2023/11/25 07:25:45;;;;;;;4.97;2.30;;;1.70;1.00;;;;;;5068358;28;20286;-75
2023/11/25 07:28:12;;;;;;;7.47;1.75;;;1.80;1.00;;;;;;5067913;28;21334;-75
2023/11/25 07:30:39;;;;;;;6.00;2.00;;;1.80;1.00;;;;;;5064424;28;20229;-76
2023/11/25 07:33:05;;;;;;;9.98;3.00;;;1.80;1.00;;;;;;5065831;28;20770;-75
2023/11/25 07:35:34;;;;;;;8.93;2.80;;;1.80;1.00;;;;;;5063733;28;20704;-77
2023/11/25 07:38:02;;;;;;;7.57;2.83;;;1.70;1.00;;;;;;5049808;28;20239;-75
2023/11/25 07:40:29;;;;;;;5.63;2.08;;;1.70;1.00;;;;;;5050019;28;20237;-75
2023/11/25 07:42:56;;;;;;;6.10;2.40;;;1.70;1.00;;;;;;5055243;28;20236;-75
2023/11/25 07:45:25;;;;;;;5.07;2.50;;;1.70;1.00;;;;;;5054552;28;20304;-77
2023/11/25 07:47:52;;;;;;;3.67;1.67;;;1.70;1.00;;;;;;5061966;28;20244;-76
2023/11/25 07:50:21;;;;;;;8.05;4.65;;;1.80;1.00;;;;;;5067731;28;20237;-76
2023/11/25 07:52:50;;;;;;;6.18;2.15;;;1.80;1.00;;;;;;5063873;28;20689;-75
2023/11/25 07:55:17;;;;;;;5.82;2.30;;;1.90;1.00;;;;;;5068347;28;20249;-74
2023/11/25 07:57:46;;;;;;;6.28;2.60;;;1.90;1.00;;;;;;5059249;28;20291;-73
2023/11/25 08:00:15;;;;;;;5.57;2.15;;;1.90;1.00;;;;;;5050565;28;20241;-75
2023/11/25 08:02:42;;;;;;;3.72;2.38;;;1.90;1.00;;;;;;5056851;28;20332;-74
2023/11/25 08:05:10;;;;;;;7.68;2.63;;;1.90;1.00;;;;;;5050922;28;20314;-76
2023/11/25 08:07:37;;;;;;;4.05;1.88;;;2.00;1.00;;;;;;5057761;28;20247;-78
2023/11/25 08:10:07;;;;;;;3.20;1.80;;;2.10;1.00;;;;;;5066451;28;20243;-75
2023/11/25 08:12:34;;;;;;;4.68;1.55;;;2.10;1.00;;;;;;5049338;28;20753;-77
2023/11/25 08:15:02;;;;;;;8.75;1.95;;;2.10;1.00;;;;;;5061178;28;20311;-76
2023/11/25 08:17:29;;;;;;;3.90;2.22;;;2.10;1.00;;;;;;5052090;28;20550;-75
2023/11/25 08:19:57;;;;;;;3.72;1.83;;;2.30;1.00;;;;;;5053039;28;20241;-76
2023/11/25 08:22:25;;;;;;;5.90;2.33;;;2.40;1.00;;;;;;5047225;28;20269;-76
2023/11/25 08:24:56;;;;;;;3.38;1.70;;;2.50;1.00;;;;;;5056149;28;20245;-75
2023/11/25 08:27:24;;;;;;;4.85;2.00;;;2.60;1.00;;;;;;5053353;28;21130;-76
2023/11/25 08:29:51;;;;;;;6.45;3.28;;;2.70;1.00;;;;;;5062037;28;20249;-76
2023/11/25 08:32:18;;;;;;;3.55;1.83;;;2.70;1.00;;;;;;5060937;28;20241;-75
2023/11/25 08:34:49;;;;;;;5.38;1.90;;;2.70;1.00;;;;;;5060935;28;20257;-76
2023/11/25 08:37:17;;;;;;;6.68;4.50;;;2.70;1.00;;;;;;5060165;28;20326;-75
2023/11/25 08:39:45;;;;;;;5.95;1.98;;;2.80;1.00;;;;;;5065659;28;20265;-74
2023/11/25 08:42:14;;;;;;;3.53;1.80;;;2.90;1.00;;;;;;5066981;28;20248;-76
2023/11/25 08:44:45;;;;;;;2.97;1.85;;;2.90;1.00;;;;;;5068702;28;20245;-74
2023/11/25 08:47:12;;;;;;;4.10;2.28;;;3.00;1.00;;;;;;5078128;28;22615;-74
2023/11/25 08:49:40;;;;;;;4.78;2.00;;;3.10;1.00;;;;;;5078382;28;20236;-77
2023/11/25 08:52:08;;;;;;;7.38;2.67;;;3.30;1.00;;;;;;5072163;28;20273;-77
2023/11/25 08:54:36;;;;;;;6.28;1.90;;;3.40;1.00;;;;;;5066477;28;20247;-77
2023/11/25 08:57:03;;;;;;;7.68;2.60;;;3.50;1.00;;;;;;5076145;28;20233;-77
2023/11/25 08:59:31;;;;;;;4.97;2.00;;;3.80;1.00;;;;;;5079206;28;20267;-77
2023/11/25 09:02:02;;;;;;;4.43;2.25;;;4.00;1.00;;;;;;5081049;28;21100;-77
2023/11/25 09:04:32;;;;;;;7.38;3.03;;;4.20;1.00;;;;;;5070046;28;20645;-77
2023/11/25 09:06:59;;;;;;;5.35;2.17;;;4.40;1.00;;;;;;5077774;28;20797;-77
2023/11/25 09:09:26;;;;;;;4.93;2.17;;;4.80;1.00;;;;;;5067337;28;20725;-77
2023/11/25 09:11:54;;;;;;;7.28;3.00;;;5.10;1.00;;;;;;5072847;28;20673;-77
2023/11/25 09:14:21;;;;;;;4.00;2.58;;;5.20;1.00;;;;;;5069718;28;20250;-79
2023/11/25 09:16:50;;;;;;;5.05;2.20;;;5.30;1.00;;;;;;5063294;28;20296;-77
2023/11/25 09:19:18;;;;;;;6.70;2.70;;;5.40;1.00;;;;;;5076334;28;20291;-77
2023/11/25 09:21:45;;;;;;;5.70;2.53;;;5.40;1.00;;;;;;5068944;28;21335;-78
2023/11/25 09:24:13;;;;;;;3.15;2.00;;;5.50;1.00;;;;;;5063520;28;20233;-76
2023/11/25 09:26:40;;;;;;;3.90;1.80;;;5.40;1.00;;;;;;5074262;28;20254;-76
2023/11/25 09:29:07;;;;;;;2.92;2.20;;;5.30;1.00;;;;;;5078564;28;20275;-80
2023/11/25 09:31:34;;;;;;;7.68;2.67;;;5.30;1.00;;;;;;5075604;28;20745;-75
2023/11/25 09:34:02;;;;;;;4.35;1.50;;;5.10;1.00;;;;;;5076629;28;20266;-80
2023/11/25 09:36:31;;;;;;;2.85;1.58;;;5.00;1.00;;;;;;5077718;28;20241;-79
2023/11/25 09:38:58;;;;;;;2.40;1.77;;;5.00;1.00;;;;;;5077788;28;20304;-81
2023/11/25 09:41:25;;;;;;;2.70;1.90;;;5.00;1.00;;;;;;5079682;28;20236;-77
2023/11/25 09:43:54;;;;;;;5.88;1.92;;;4.90;1.00;;;;;;5077011;28;20236;-79
2023/11/25 09:46:22;;;;;;;6.00;2.75;;;4.90;1.00;;;;;;5061043;28;20241;-77
2023/11/25 09:48:50;;;;;;;7.72;2.13;;;4.80;1.00;;;;;;5074571;28;20282;-75
2023/11/25 09:51:25;;;;;;;4.47;2.35;;;4.80;1.00;;;;;;5078594;28;20276;-77
2023/11/25 09:54:00;;;;;;;5.53;1.95;;;5.00;1.00;;;;;;5069677;28;20291;-79
2023/11/25 09:56:29;;;;;;;4.35;1.92;;;5.10;1.00;;;;;;5076751;28;21068;-76
2023/11/25 09:58:56;;;;;;;5.20;2.00;;;5.40;1.00;;;;;;5063132;28;20226;-80
2023/11/25 10:01:26;;;;;;;7.45;4.22;;;5.80;1.00;;;;;;5073014;28;20233;-79
2023/11/25 10:03:55;;;;;;;8.52;2.90;;;6.10;1.00;;;;;;5073873;28;20243;-76
2023/11/25 10:06:25;;;;;;;5.68;2.35;;;6.20;1.00;;;;;;5064656;28;20356;-78
2023/11/25 10:08:55;;;;;;;5.30;2.10;;;6.10;1.00;;;;;;5057292;28;20242;-79
2023/11/25 10:11:23;;;;;;;6.65;3.10;;;6.20;1.00;;;;;;5055028;28;20251;-77
2023/11/25 10:13:50;;;;;;;6.03;2.78;;;6.00;1.00;;;;;;5071617;28;20236;-78
2023/11/25 10:16:26;;;;;;;5.78;2.30;;;6.00;1.00;;;;;;5062063;28;20786;-79
2023/11/25 10:18:54;;;;;;;3.55;2.00;;;6.20;1.00;;;;;;5075922;28;20289;-80
2023/11/25 10:21:21;;;;;;;4.65;2.50;;;6.60;1.00;;;;;;5071118;28;20237;-75
2023/11/25 10:23:48;;;;;;;8.02;4.00;;;6.70;1.00;;;;;;5056688;28;21049;-78
2023/11/25 10:26:18;;;;;;;6.40;3.45;;;6.50;1.00;;;;;;5070994;28;20300;-78
2023/11/25 10:28:47;;;;;;;4.10;2.28;;;6.30;1.00;;;;;;5079487;28;20243;-80
2023/11/25 10:31:15;;;;;;;5.20;2.40;;;6.10;1.00;;;;;;5066598;28;20238;-75
2023/11/25 10:33:43;;;;;;;7.78;3.65;;;6.00;1.00;;;;;;5053394;28;20300;-76
2023/11/25 10:36:13;;;;;;;4.43;3.03;;;5.90;1.00;;;;;;5065617;28;21125;-74
2023/11/25 10:38:41;;;;;;;3.70;2.65;;;5.80;1.00;;;;;;5063292;28;20329;-78
2023/11/25 10:41:11;;;;;;;5.72;2.58;;;5.60;1.00;;;;;;5070582;28;20240;-78
2023/11/25 10:43:43;;;;;;;9.40;3.25;;;5.60;1.00;;;;;;5061452;28;20241;-79
2023/11/25 10:46:11;;;;;;;6.43;2.92;;;5.70;1.00;;;;;;5059261;28;20277;-75
2023/11/25 10:48:42;;;;;;;5.93;3.70;;;5.70;1.00;;;;;;5058883;28;20717;-75
2023/11/25 10:51:09;;;;;;;7.60;3.10;;;5.80;1.00;;;;;;5072707;28;20352;-73
2023/11/25 10:53:41;;;;;;;6.32;4.05;;;5.80;1.00;;;;;;5073041;28;20243;-75
2023/11/25 10:56:08;;;;;;;9.00;4.45;;;5.90;1.00;;;;;;5075242;28;20790;-77
2023/11/25 10:58:37;;;;;;;4.70;3.67;;;5.70;1.00;;;;;;5068749;28;20241;-78
2023/11/25 11:01:06;;;;;;;8.18;3.47;;;5.50;1.00;;;;;;5077145;28;20232;-78
2023/11/25 11:03:50;;;;;;;5.85;3.15;;;5.40;1.00;;;;;;5078393;28;20260;-80
2023/11/25 11:06:22;;;;;;;5.47;3.85;;;5.30;1.00;;;;;;5078610;28;20283;-79
2023/11/25 11:08:52;;;;;;;8.90;3.50;;;5.30;1.00;;;;;;5069920;28;20224;-78
2023/11/25 11:11:31;;;;;;;7.47;3.78;;;5.30;1.00;;;;;;5062645;28;20620;-77
2023/11/25 11:14:15;;;;;;;5.72;3.97;;;5.20;1.00;;;;;;5078813;28;20264;-80
2023/11/25 11:16:53;;;;;;;8.80;3.88;;;5.10;1.00;;;;;;5080450;28;20360;-80
2023/11/25 11:19:28;;;;;;;6.43;3.78;;;5.10;1.00;;;;;;5082007;28;20264;-79
2023/11/25 11:22:05;;;;;;;10.30;4.03;;;5.20;1.00;;;;;;5079539;28;20237;-80
2023/11/25 11:24:44;;;;;;;7.18;4.20;;;5.30;1.00;;;;;;5085188;28;20260;-79
2023/11/25 11:27:17;;;;;;;8.80;3.97;;;5.30;1.00;;;;;;5079288;28;20259;-84
2023/11/25 11:29:50;;;;;;;7.47;4.03;;;5.30;1.00;;;;;;5068502;28;20325;-78
2023/11/25 11:32:26;;;;;;;8.50;3.50;;;5.30;1.00;;;;;;5063856;28;20243;-79
2023/11/25 11:34:57;;;;;;;6.55;5.32;;;5.20;1.00;;;;;;5061196;28;20346;-78
2023/11/25 11:37:36;;;;;;;9.50;4.55;;;5.20;1.00;;;;;;5058408;28;20253;-79
2023/11/25 11:40:06;;;;;;;6.28;4.25;;;5.20;1.00;;;;;;5070065;28;20237;-77
2023/11/25 11:42:34;;;;;;;5.25;4.75;;;5.20;1.00;;;;;;5068916;28;20243;-77
2023/11/25 11:45:15;;;;;;;4.95;4.30;;;5.20;1.00;;;;;;5080414;28;20290;-74
2023/11/25 11:47:45;;;;;;;6.55;4.53;;;5.20;1.00;;;;;;5074229;28;20244;-79
2023/11/25 11:50:17;;;;;;;4.38;3.97;;;5.20;1.00;;;;;;5074495;28;20229;-73
2023/11/25 11:52:46;;;;;;;7.68;5.18;;;5.10;1.00;;;;;;5079847;28;20269;-78
2023/11/25 11:55:40;;;;;;;5.88;4.00;;;5.00;1.00;;;;;;5077680;28;20330;-80
2023/11/25 11:58:09;;;;;;;4.80;4.40;;;4.90;1.00;;;;;;5072106;28;20302;-77
2023/11/25 12:00:46;;;;;;;5.82;4.25;;;4.80;1.00;;;;;;5078966;28;20230;-78
2023/11/25 12:03:15;;;;;;;5.28;4.40;;;4.80;1.00;;;;;;5068797;28;20418;-78
2023/11/25 12:05:45;;;;;;;6.32;4.70;;;4.70;1.00;;;;;;5059304;28;20260;-79
2023/11/25 12:08:12;;;;;;;6.93;5.13;;;4.60;1.00;;;;;;5091972;28;20226;-77
2023/11/25 12:10:40;;;;;;;5.50;4.68;;;4.60;1.00;;;;;;5079557;28;20256;-75
2023/11/25 12:13:08;;;;;;;4.40;4.10;;;4.60;1.00;;;;;;5078717;28;20295;-78
2023/11/25 12:15:36;;;;;;;4.95;4.55;;;4.70;1.00;;;;;;5081287;28;20232;-80
2023/11/25 12:18:05;;;;;;;4.75;3.63;;;4.70;1.00;;;;;;5080717;28;20241;-73
2023/11/25 12:20:33;;;;;;;3.47;3.20;;;4.60;1.00;;;;;;5080995;28;20381;-79
2023/11/25 12:23:08;;;;;;;4.47;3.70;;;4.60;1.00;;;;;;5081686;28;20236;-76
2023/11/25 12:25:36;;;;;;;2.63;2.38;;;4.70;1.00;;;;;;5074821;28;20286;-79
2023/11/25 12:28:07;;;;;;;6.75;4.68;;;4.60;1.00;;;;;;5078989;28;20334;-77
2023/11/25 12:30:36;;;;;;;2.35;1.85;;;4.50;1.00;;;;;;5082697;28;20248;-77
2023/11/25 12:33:03;;;;;;;3.15;2.55;;;4.40;1.00;;;;;;5067711;28;20241;-78
2023/11/25 12:35:30;;;;;;;4.65;4.22;;;4.30;1.00;;;;;;5074282;28;20247;-77
2023/11/25 12:37:59;;;;;;;4.72;2.10;;;4.30;1.00;;;;;;5069065;28;21090;-76
2023/11/25 12:40:28;;;;;;;2.47;2.20;;;4.20;1.00;;;;;;5078626;28;20253;-80
2023/11/25 12:42:54;;;;;;;3.53;2.53;;;4.20;1.00;;;;;;5073214;28;20990;-78
2023/11/25 12:45:34;;;;;;;2.50;2.30;;;4.10;1.00;;;;;;5084277;28;20240;-77
2023/11/25 12:48:04;;;;;;;3.47;2.20;;;4.10;1.00;;;;;;5083922;28;20311;-73
2023/11/25 12:50:31;;;;;;;4.03;3.20;;;4.10;1.00;;;;;;5080595;28;20233;-78
2023/11/25 12:53:13;;;;;;;3.42;2.83;;;4.00;1.00;;;;;;5066567;28;21132;-79
2023/11/25 12:55:42;;;;;;;5.22;3.70;;;4.00;1.00;;;;;;5065769;28;20236;-77
2023/11/25 12:58:11;;;;;;;4.90;3.15;;;4.00;1.00;;;;;;5062987;28;20677;-78
2023/11/25 13:00:44;;;;;;;3.80;3.50;;;4.00;1.00;;;;;;5078347;28;21001;-74
2023/11/25 13:03:13;;;;;;;3.13;2.92;;;3.80;1.00;;;;;;5072813;28;21045;-78
2023/11/25 13:05:40;;;;;;;4.53;3.70;;;3.90;1.00;;;;;;5071594;28;20310;-79
2023/11/25 13:08:22;;;;;;;3.78;3.40;;;4.00;1.00;;;;;;5063028;28;20234;-78
2023/11/25 13:10:49;;;;;;;3.75;3.33;;;4.00;1.00;;;;;;5053918;28;20241;-79
2023/11/25 13:13:16;;;;;;;5.65;3.08;;;3.90;1.00;;;;;;5051843;28;20241;-77
2023/11/25 13:15:43;;;;;;;3.50;3.20;;;3.90;1.00;;;;;;5061015;28;20240;-78